createdAt,value
2019-03-19T00:00:38.206Z,0
2019-03-19T00:01:38.228Z,0
2019-03-19T00:02:38.292Z,0
2019-03-19T00:03:38.218Z,0
2019-03-19T00:04:38.287Z,0
2019-03-19T00:05:38.289Z,0
2019-03-19T00:06:38.286Z,0
2019-03-19T00:07:38.224Z,0
2019-03-19T00:08:38.288Z,0
2019-03-19T00:09:38.291Z,0
2019-03-19T00:10:38.292Z,0
2019-03-19T00:11:38.324Z,0
2019-03-19T00:12:38.238Z,0
2019-03-19T00:13:38.311Z,0
2019-03-19T00:14:38.260Z,0
2019-03-19T00:15:38.144Z,0
2019-03-19T00:16:38.265Z,0
2019-03-19T00:17:38.206Z,0
2019-03-19T00:18:38.176Z,0
2019-03-19T00:19:38.214Z,0
2019-03-19T00:20:38.150Z,0
2019-03-19T00:21:38.180Z,0
2019-03-19T00:22:38.317Z,0
2019-03-19T00:23:38.299Z,0
2019-03-19T00:24:38.250Z,0
2019-03-19T00:25:38.310Z,0
2019-03-19T00:26:38.259Z,0
2019-03-19T00:27:38.310Z,0
2019-03-19T00:28:39.137Z,0
2019-03-19T00:29:38.245Z,0
2019-03-19T00:30:38.313Z,0
2019-03-19T00:31:38.257Z,0
2019-03-19T00:32:38.251Z,0
2019-03-19T00:33:38.237Z,0
2019-03-19T00:34:38.231Z,0
2019-03-19T00:35:38.309Z,0
2019-03-19T00:36:38.254Z,0
2019-03-19T00:37:38.254Z,0
2019-03-19T00:38:38.313Z,0
2019-03-19T00:40:38.308Z,0
2019-03-19T00:41:38.310Z,0
2019-03-19T00:42:38.261Z,0
2019-03-19T00:43:38.257Z,0
2019-03-19T00:44:38.312Z,0
2019-03-19T00:45:38.242Z,0
2019-03-19T00:46:38.320Z,0
2019-03-19T00:47:38.387Z,0
2019-03-19T00:48:38.259Z,0
2019-03-19T00:49:38.269Z,0
2019-03-19T00:50:38.254Z,0
2019-03-19T00:51:38.331Z,0
2019-03-19T00:52:38.322Z,0
2019-03-19T00:53:38.326Z,0
2019-03-19T00:54:38.273Z,0
2019-03-19T00:55:40.870Z,0
2019-03-19T00:56:38.323Z,0
2019-03-19T00:57:38.336Z,0
2019-03-19T00:58:38.269Z,0
2019-03-19T00:59:38.311Z,0
2019-03-19T01:00:38.334Z,0
2019-03-19T01:01:38.934Z,0
2019-03-19T01:02:38.245Z,0
2019-03-19T01:03:38.314Z,0
2019-03-19T01:04:38.342Z,0
2019-03-19T01:05:38.320Z,0
2019-03-19T01:06:38.315Z,0
2019-03-19T01:07:38.250Z,0
2019-03-19T01:08:38.342Z,0
2019-03-19T01:09:38.266Z,0
2019-03-19T01:10:38.250Z,0
2019-03-19T01:11:38.323Z,0
2019-03-19T01:12:38.227Z,0
2019-03-19T01:13:38.315Z,0
2019-03-19T01:14:38.278Z,0
2019-03-19T01:15:38.318Z,0
2019-03-19T01:16:38.322Z,0
2019-03-19T01:17:38.274Z,0
2019-03-19T01:18:38.311Z,0
2019-03-19T01:19:38.326Z,0
2019-03-19T01:20:38.293Z,0
2019-03-19T01:21:38.335Z,0
2019-03-19T01:22:38.330Z,0
2019-03-19T01:23:38.331Z,0
2019-03-19T01:24:38.328Z,0
2019-03-19T01:25:39.626Z,0
2019-03-19T01:26:38.221Z,0
2019-03-19T01:27:38.339Z,0
2019-03-19T01:28:38.335Z,0
2019-03-19T01:29:38.267Z,0
2019-03-19T01:30:38.337Z,0
2019-03-19T01:31:38.274Z,0
2019-03-19T01:32:38.356Z,0
2019-03-19T01:33:38.351Z,0
2019-03-19T01:34:38.297Z,0
2019-03-19T01:35:38.313Z,0
2019-03-19T01:36:38.292Z,0
2019-03-19T01:37:38.361Z,0
2019-03-19T01:38:38.297Z,0
2019-03-19T01:39:38.354Z,0
2019-03-19T01:40:38.299Z,0
2019-03-19T01:41:38.296Z,0
2019-03-19T01:42:38.418Z,0
2019-03-19T01:43:38.379Z,0
2019-03-19T01:44:38.318Z,0
2019-03-19T01:45:38.307Z,0
2019-03-19T01:46:38.312Z,0
2019-03-19T01:47:38.375Z,0
2019-03-19T01:48:38.306Z,0
2019-03-19T01:49:38.315Z,0
2019-03-19T01:50:38.385Z,0
2019-03-19T01:51:38.374Z,0
2019-03-19T01:52:38.326Z,0
2019-03-19T01:53:38.250Z,0
2019-03-19T01:54:38.238Z,0
2019-03-19T01:55:38.252Z,0
2019-03-19T01:56:38.256Z,0
2019-03-19T01:57:38.276Z,0
2019-03-19T01:58:38.234Z,0
2019-03-19T01:59:38.262Z,0
2019-03-19T02:00:38.350Z,0
2019-03-19T02:01:38.234Z,0
2019-03-19T02:02:38.342Z,0
2019-03-19T02:03:38.357Z,0
2019-03-19T02:04:38.268Z,0
2019-03-19T02:05:38.372Z,0
2019-03-19T02:06:38.334Z,0
2019-03-19T02:07:38.358Z,0
2019-03-19T02:08:38.265Z,0
2019-03-19T02:09:38.352Z,0
2019-03-19T02:10:38.321Z,0
2019-03-19T02:11:38.582Z,0
2019-03-19T02:12:38.268Z,0
2019-03-19T02:13:38.303Z,0
2019-03-19T02:14:38.363Z,0
2019-03-19T02:15:38.325Z,0
2019-03-19T02:16:38.309Z,0
2019-03-19T02:17:38.371Z,0
2019-03-19T02:18:38.298Z,0
2019-03-19T02:19:38.374Z,0
2019-03-19T02:20:38.367Z,0
2019-03-19T02:21:38.376Z,0
2019-03-19T02:22:38.377Z,0
2019-03-19T02:23:38.433Z,0
2019-03-19T02:24:38.408Z,0
2019-03-19T02:25:38.335Z,0
2019-03-19T02:26:38.401Z,0
2019-03-19T02:28:38.327Z,0
2019-03-19T02:29:38.345Z,0
2019-03-19T02:30:38.355Z,0
2019-03-19T02:31:38.408Z,0
2019-03-19T02:32:38.419Z,0
2019-03-19T02:33:38.473Z,0
2019-03-19T02:34:38.443Z,0
2019-03-19T02:35:38.390Z,0
2019-03-19T02:36:38.378Z,0
2019-03-19T02:37:38.407Z,0
2019-03-19T02:38:38.395Z,0
2019-03-19T02:39:38.324Z,0
2019-03-19T02:40:38.392Z,0
2019-03-19T02:41:38.403Z,0
2019-03-19T02:42:38.402Z,0
2019-03-19T02:43:38.342Z,0
2019-03-19T02:44:38.338Z,0
2019-03-19T02:45:38.398Z,0
2019-03-19T02:46:38.348Z,0
2019-03-19T02:47:38.342Z,0
2019-03-19T02:48:38.421Z,0
2019-03-19T02:49:38.337Z,0
2019-03-19T02:50:38.349Z,0
2019-03-19T02:51:38.423Z,0
2019-03-19T02:52:38.356Z,0
2019-03-19T02:53:38.416Z,0
2019-03-19T02:54:38.356Z,0
2019-03-19T02:55:38.443Z,0
2019-03-19T02:56:38.333Z,0
2019-03-19T02:57:38.415Z,0
2019-03-19T02:58:38.299Z,0
2019-03-19T02:59:38.402Z,0
2019-03-19T03:00:38.440Z,0
2019-03-19T03:01:38.336Z,0
2019-03-19T03:02:38.429Z,0
2019-03-19T03:03:38.293Z,0
2019-03-19T03:04:38.359Z,0
2019-03-19T03:05:38.285Z,0
2019-03-19T03:06:38.347Z,0
2019-03-19T03:07:38.290Z,0
2019-03-19T03:08:38.403Z,0
2019-03-19T03:09:38.312Z,0
2019-03-19T03:10:38.354Z,0
2019-03-19T03:11:38.354Z,0
2019-03-19T03:12:38.395Z,0
2019-03-19T03:13:38.407Z,0
2019-03-19T03:14:38.349Z,0
2019-03-19T03:15:38.353Z,0
2019-03-19T03:16:38.416Z,0
2019-03-19T03:17:38.343Z,0
2019-03-19T03:18:38.412Z,0
2019-03-19T03:19:38.411Z,0
2019-03-19T03:20:38.474Z,0
2019-03-19T03:21:38.433Z,0
2019-03-19T03:22:38.480Z,0
2019-03-19T03:23:38.414Z,0
2019-03-19T03:24:38.413Z,0
2019-03-19T03:25:38.356Z,0
2019-03-19T03:26:47.784Z,0
2019-03-19T03:27:38.364Z,0
2019-03-19T03:28:38.435Z,0
2019-03-19T03:29:38.346Z,0
2019-03-19T03:30:38.440Z,0
2019-03-19T03:31:38.445Z,0
2019-03-19T03:32:38.367Z,0
2019-03-19T03:33:38.340Z,0
2019-03-19T03:34:38.417Z,0
2019-03-19T03:35:38.304Z,0
2019-03-19T03:36:38.366Z,0
2019-03-19T03:37:38.349Z,0
2019-03-19T03:38:38.445Z,0
2019-03-19T03:39:38.413Z,0
2019-03-19T03:40:38.427Z,0
2019-03-19T03:41:38.345Z,0
2019-03-19T03:42:38.436Z,0
2019-03-19T03:43:38.431Z,0
2019-03-19T03:44:38.373Z,0
2019-03-19T03:45:38.436Z,0
2019-03-19T03:46:38.443Z,0
2019-03-19T03:47:38.364Z,0
2019-03-19T03:48:38.371Z,0
2019-03-19T03:49:38.441Z,0
2019-03-19T03:50:38.436Z,0
2019-03-19T03:51:38.369Z,0
2019-03-19T03:52:38.435Z,0
2019-03-19T03:53:38.370Z,0
2019-03-19T03:54:38.438Z,0
2019-03-19T03:55:38.436Z,0
2019-03-19T03:56:38.441Z,0
2019-03-19T03:57:38.393Z,0
2019-03-19T03:58:38.448Z,0
2019-03-19T03:59:38.447Z,0
2019-03-19T04:00:38.379Z,0
2019-03-19T04:01:38.463Z,0
2019-03-19T04:02:38.441Z,0
2019-03-19T04:03:38.458Z,0
2019-03-19T04:04:38.400Z,0
2019-03-19T04:05:38.400Z,0
2019-03-19T04:06:38.479Z,0
2019-03-19T04:07:38.390Z,0
2019-03-19T04:08:38.438Z,0
2019-03-19T04:09:38.486Z,0
2019-03-19T04:10:38.471Z,0
2019-03-19T04:11:38.387Z,0
2019-03-19T04:12:38.465Z,0
2019-03-19T04:13:38.468Z,0
2019-03-19T04:14:38.469Z,0
2019-03-19T04:15:38.391Z,0
2019-03-19T04:16:38.466Z,0
2019-03-19T04:17:38.408Z,0
2019-03-19T04:18:38.401Z,0
2019-03-19T04:19:38.463Z,0
2019-03-19T04:20:38.480Z,0
2019-03-19T04:21:38.453Z,0
2019-03-19T04:22:38.473Z,0
2019-03-19T04:23:38.413Z,0
2019-03-19T04:24:38.345Z,0
2019-03-19T04:25:38.417Z,0
2019-03-19T04:26:38.333Z,0
2019-03-19T04:27:40.281Z,0
2019-03-19T04:28:38.388Z,0
2019-03-19T04:29:38.445Z,0
2019-03-19T04:30:38.321Z,0
2019-03-19T04:31:38.442Z,0
2019-03-19T04:32:38.414Z,0
2019-03-19T04:33:38.400Z,0
2019-03-19T04:34:38.453Z,0
2019-03-19T04:35:38.396Z,0
2019-03-19T04:36:38.421Z,0
2019-03-19T04:37:38.462Z,0
2019-03-19T04:38:38.344Z,0
2019-03-19T04:39:38.380Z,0
2019-03-19T04:40:38.465Z,0
2019-03-19T04:41:38.473Z,0
2019-03-19T04:42:38.489Z,0
2019-03-19T04:43:38.333Z,0
2019-03-19T04:44:38.450Z,0
2019-03-19T04:45:38.445Z,0
2019-03-19T04:46:38.396Z,0
2019-03-19T04:47:38.460Z,0
2019-03-19T04:48:38.453Z,0
2019-03-19T04:49:38.363Z,0
2019-03-19T04:50:38.344Z,0
2019-03-19T04:51:38.344Z,0
2019-03-19T04:52:38.430Z,4
2019-03-19T04:53:38.490Z,4
2019-03-19T04:54:38.417Z,0
2019-03-19T04:55:38.419Z,4
2019-03-19T04:56:38.483Z,4
2019-03-19T04:57:38.415Z,4
2019-03-19T04:58:38.484Z,8
2019-03-19T04:59:38.416Z,8
2019-03-19T05:00:38.482Z,8
2019-03-19T05:01:38.416Z,8
2019-03-19T05:02:38.484Z,16
2019-03-19T05:03:38.507Z,12
2019-03-19T05:04:38.503Z,20
2019-03-19T05:05:38.436Z,24
2019-03-19T05:06:38.500Z,28
2019-03-19T05:07:38.498Z,32
2019-03-19T05:08:38.446Z,40
2019-03-19T05:09:38.564Z,52
2019-03-19T05:10:38.447Z,64
2019-03-19T05:11:38.503Z,76
2019-03-19T05:12:38.503Z,92
2019-03-19T05:13:38.447Z,112
2019-03-19T05:14:38.513Z,124
2019-03-19T05:15:38.492Z,148
2019-03-19T05:16:38.444Z,172
2019-03-19T05:17:38.451Z,200
2019-03-19T05:18:38.452Z,236
2019-03-19T05:19:38.452Z,280
2019-03-19T05:20:38.454Z,316
2019-03-19T05:21:38.450Z,360
2019-03-19T05:22:38.511Z,412
2019-03-19T05:23:38.508Z,464
2019-03-19T05:24:38.522Z,520
2019-03-19T05:25:38.458Z,580
2019-03-19T05:26:38.512Z,636
2019-03-19T05:27:38.462Z,700
2019-03-19T05:28:38.501Z,772
2019-03-19T05:29:38.518Z,840
2019-03-19T05:30:38.520Z,908
2019-03-19T05:31:38.455Z,996
2019-03-19T05:32:38.517Z,1104
2019-03-19T05:33:38.524Z,1220
2019-03-19T05:34:38.530Z,1316
2019-03-19T05:35:38.514Z,1412
2019-03-19T05:36:38.537Z,1524
2019-03-19T05:37:38.462Z,1656
2019-03-19T05:38:38.513Z,1780
2019-03-19T05:39:38.450Z,1892
2019-03-19T05:40:38.558Z,1992
2019-03-19T05:41:38.540Z,2136
2019-03-19T05:42:38.485Z,2288
2019-03-19T05:43:38.523Z,2420
2019-03-19T05:44:38.455Z,2540
2019-03-19T05:45:38.489Z,2672
2019-03-19T05:46:38.570Z,2756
2019-03-19T05:47:40.482Z,2856
2019-03-19T05:48:38.455Z,2924
2019-03-19T05:49:38.456Z,3016
2019-03-19T05:50:38.517Z,3080
2019-03-19T05:51:38.552Z,3096
2019-03-19T05:52:38.538Z,3092
2019-03-19T05:53:38.538Z,3188
2019-03-19T05:54:38.459Z,3304
2019-03-19T05:55:38.552Z,3472
2019-03-19T05:56:38.461Z,3640
2019-03-19T05:57:48.889Z,3864
2019-03-19T05:58:38.542Z,4200
2019-03-19T05:59:40.026Z,4616
2019-03-19T06:00:38.464Z,4708
2019-03-19T06:01:38.529Z,4532
2019-03-19T06:02:38.472Z,4460
2019-03-19T06:03:38.461Z,4584
2019-03-19T06:04:38.528Z,4772
2019-03-19T06:05:38.529Z,5056
2019-03-19T06:06:38.451Z,5184
2019-03-19T06:07:38.464Z,5344
2019-03-19T06:08:38.457Z,5628
2019-03-19T06:09:38.596Z,5568
2019-03-19T06:10:38.533Z,5520
2019-03-19T06:11:38.458Z,5656
2019-03-19T06:12:38.458Z,5800
2019-03-19T06:13:38.548Z,5968
2019-03-19T06:14:38.490Z,6004
2019-03-19T06:15:38.471Z,5900
2019-03-19T06:16:38.473Z,6040
2019-03-19T06:17:38.472Z,6240
2019-03-19T06:18:38.543Z,6736
2019-03-19T06:19:38.492Z,7344
2019-03-19T06:20:38.480Z,7928
2019-03-19T06:21:38.546Z,8016
2019-03-19T06:22:38.481Z,8272
2019-03-19T06:23:38.482Z,8800
2019-03-19T06:24:38.546Z,9864
2019-03-19T06:25:38.503Z,10888
2019-03-19T06:26:38.477Z,10604
2019-03-19T06:27:38.555Z,9760
2019-03-19T06:28:38.553Z,9692
2019-03-19T06:29:38.554Z,10136
2019-03-19T06:30:38.497Z,10616
2019-03-19T06:31:38.485Z,10704
2019-03-19T06:32:38.557Z,10016
2019-03-19T06:33:38.558Z,10196
2019-03-19T06:34:38.498Z,10504
2019-03-19T06:35:38.508Z,10936
2019-03-19T06:36:38.580Z,10844
2019-03-19T06:37:38.488Z,11008
2019-03-19T06:38:38.492Z,12784
2019-03-19T06:39:38.566Z,15156
2019-03-19T06:40:38.563Z,16052
2019-03-19T06:41:38.574Z,17548
2019-03-19T06:42:38.504Z,15836
2019-03-19T06:43:38.561Z,15448
2019-03-19T06:44:38.583Z,17208
2019-03-19T06:45:38.494Z,15332
2019-03-19T06:46:38.506Z,12284
2019-03-19T06:47:38.580Z,11880
2019-03-19T06:48:38.494Z,12028
2019-03-19T06:49:38.568Z,14100
2019-03-19T06:50:45.109Z,15820
2019-03-19T06:51:38.498Z,15200
2019-03-19T06:52:38.559Z,14804
2019-03-19T06:53:38.520Z,14592
2019-03-19T06:54:38.568Z,13256
2019-03-19T06:55:38.533Z,13140
2019-03-19T06:56:38.575Z,13332
2019-03-19T06:57:39.505Z,13060
2019-03-19T06:58:38.505Z,15528
2019-03-19T06:59:38.515Z,14668
2019-03-19T07:00:38.514Z,12328
2019-03-19T07:01:38.582Z,11908
2019-03-19T07:02:38.503Z,12840
2019-03-19T07:03:38.510Z,14116
2019-03-19T07:04:38.573Z,15320
2019-03-19T07:05:38.510Z,15888
2019-03-19T07:06:38.507Z,15628
2019-03-19T07:07:38.514Z,13904
2019-03-19T07:08:38.522Z,15012
2019-03-19T07:09:38.509Z,15460
2019-03-19T07:10:38.579Z,16292
2019-03-19T07:11:38.510Z,14836
2019-03-19T07:12:38.583Z,14420
2019-03-19T07:13:38.528Z,16856
2019-03-19T07:14:38.526Z,19872
2019-03-19T07:15:38.559Z,19552
2019-03-19T07:16:38.585Z,21016
2019-03-19T07:17:38.518Z,20176
2019-03-19T07:18:38.591Z,16552
2019-03-19T07:19:38.517Z,16528
2019-03-19T07:20:38.586Z,16800
2019-03-19T07:21:38.521Z,17336
2019-03-19T07:22:38.602Z,19364
2019-03-19T07:23:38.523Z,19552
2019-03-19T07:24:38.595Z,21588
2019-03-19T07:25:38.602Z,20392
2019-03-19T07:26:38.527Z,22348
2019-03-19T07:27:38.526Z,23168
2019-03-19T07:28:38.591Z,26912
2019-03-19T07:29:38.545Z,24096
2019-03-19T07:30:40.764Z,22020
2019-03-19T07:31:38.524Z,19960
2019-03-19T07:32:38.526Z,20160
2019-03-19T07:33:38.597Z,21128
2019-03-19T07:34:38.692Z,24192
2019-03-19T07:35:38.546Z,16996
2019-03-19T07:36:38.530Z,17084
2019-03-19T07:37:38.604Z,16480
2019-03-19T07:38:38.599Z,17580
2019-03-19T07:39:38.605Z,15972
2019-03-19T07:40:38.496Z,15892
2019-03-19T07:41:38.615Z,14516
2019-03-19T07:42:38.619Z,15656
2019-03-19T07:43:38.604Z,15780
2019-03-19T07:44:38.565Z,16608
2019-03-19T07:45:38.610Z,17140
2019-03-19T07:46:38.557Z,18292
2019-03-19T07:47:38.612Z,17944
2019-03-19T07:48:38.609Z,16988
2019-03-19T07:49:38.616Z,19288
2019-03-19T07:50:38.618Z,21100
2019-03-19T07:51:38.616Z,22748
2019-03-19T07:52:38.622Z,24960
2019-03-19T07:53:38.538Z,23296
2019-03-19T07:54:38.617Z,22644
2019-03-19T07:55:38.622Z,25376
2019-03-19T07:56:38.542Z,28128
2019-03-19T07:57:38.620Z,27808
2019-03-19T07:58:45.258Z,28096
2019-03-19T07:59:38.617Z,29024
2019-03-19T08:00:38.548Z,31072
2019-03-19T08:01:38.623Z,33120
2019-03-19T08:02:38.563Z,35648
2019-03-19T08:03:38.626Z,36064
2019-03-19T08:04:38.552Z,35232
2019-03-19T08:05:38.618Z,36064
2019-03-19T08:06:38.624Z,36672
2019-03-19T08:07:38.601Z,37408
2019-03-19T08:08:38.591Z,37120
2019-03-19T08:09:38.711Z,36640
2019-03-19T08:10:38.557Z,36608
2019-03-19T08:11:38.556Z,38656
2019-03-19T08:12:38.556Z,40768
2019-03-19T08:13:38.635Z,41792
2019-03-19T08:14:38.555Z,40736
2019-03-19T08:15:38.529Z,38720
2019-03-19T08:16:38.567Z,36960
2019-03-19T08:17:38.520Z,36320
2019-03-19T08:18:38.603Z,35936
2019-03-19T08:19:38.611Z,35840
2019-03-19T08:20:38.621Z,35264
2019-03-19T08:21:38.607Z,34880
2019-03-19T08:22:38.616Z,34816
2019-03-19T08:23:38.616Z,35616
2019-03-19T08:24:38.570Z,35840
2019-03-19T08:25:38.566Z,36864
2019-03-19T08:26:38.567Z,34592
2019-03-19T08:27:38.685Z,32288
2019-03-19T08:28:38.569Z,30112
2019-03-19T08:29:38.647Z,28192
2019-03-19T08:30:38.572Z,28992
2019-03-19T08:31:38.644Z,28896
2019-03-19T08:32:38.570Z,30784
2019-03-19T08:33:38.638Z,35392
2019-03-19T08:34:38.618Z,43072
2019-03-19T08:35:38.588Z,46848
2019-03-19T08:36:38.546Z,44384
2019-03-19T08:37:38.571Z,40512
2019-03-19T08:38:38.619Z,60864
2019-03-19T08:39:38.634Z,57312
2019-03-19T08:40:38.639Z,103392
2019-03-19T08:41:38.534Z,51840
2019-03-19T08:42:38.556Z,48512
2019-03-19T08:43:38.548Z,37632
2019-03-19T08:44:38.550Z,38144
2019-03-19T08:45:38.565Z,43008
2019-03-19T08:46:38.577Z,39584
2019-03-19T08:47:38.648Z,40512
2019-03-19T08:48:38.638Z,39520
2019-03-19T08:49:38.643Z,41920
2019-03-19T08:50:38.573Z,48896
2019-03-19T08:51:38.637Z,60800
2019-03-19T08:52:38.558Z,41312
2019-03-19T08:53:38.570Z,43520
2019-03-19T08:54:38.594Z,50464
2019-03-19T08:55:38.562Z,57760
2019-03-19T08:56:38.519Z,58624
2019-03-19T08:57:38.649Z,98176
2019-03-19T08:58:38.635Z,41344
2019-03-19T08:59:38.596Z,35520
2019-03-19T09:00:38.528Z,34208
2019-03-19T09:01:38.581Z,34560
2019-03-19T09:02:38.584Z,33696
2019-03-19T09:03:38.643Z,33504
2019-03-19T09:04:38.597Z,89920
2019-03-19T09:05:38.590Z,83072
2019-03-19T09:06:38.661Z,28224
2019-03-19T09:07:38.610Z,26112
2019-03-19T09:08:38.678Z,41152
2019-03-19T09:09:38.564Z,66464
2019-03-19T09:10:38.678Z,112992
2019-03-19T09:11:38.671Z,106624
2019-03-19T09:12:38.599Z,103776
2019-03-19T09:13:38.664Z,92640
2019-03-19T09:14:38.662Z,98176
2019-03-19T09:15:38.542Z,97856
2019-03-19T09:16:38.559Z,99200
2019-03-19T09:17:38.657Z,99296
2019-03-19T09:18:38.610Z,102112
2019-03-19T09:19:38.668Z,105184
2019-03-19T09:20:38.606Z,104448
2019-03-19T09:21:38.612Z,103136
2019-03-19T09:22:38.663Z,103360
2019-03-19T09:23:38.626Z,101088
2019-03-19T09:24:38.672Z,84320
2019-03-19T09:25:38.711Z,107392
2019-03-19T09:26:38.602Z,107200
2019-03-19T09:27:38.670Z,107232
2019-03-19T09:28:38.670Z,25760
2019-03-19T09:29:38.678Z,109504
2019-03-19T09:30:38.607Z,112512
2019-03-19T09:31:38.691Z,108576
2019-03-19T09:32:38.600Z,39552
2019-03-19T09:33:38.676Z,130496
2019-03-19T09:34:38.538Z,126752
2019-03-19T09:35:38.645Z,36448
2019-03-19T09:36:38.614Z,116800
2019-03-19T09:37:44.549Z,43264
2019-03-19T09:38:38.588Z,39840
2019-03-19T09:39:38.669Z,113824
2019-03-19T09:40:38.657Z,28064
2019-03-19T09:41:38.589Z,26688
2019-03-19T09:42:38.545Z,107424
2019-03-19T09:43:38.544Z,122816
2019-03-19T09:44:38.648Z,116224
2019-03-19T09:45:38.637Z,112992
2019-03-19T09:46:38.698Z,84128
2019-03-19T09:47:38.712Z,113280
2019-03-19T09:48:38.694Z,119648
2019-03-19T09:49:38.623Z,130528
2019-03-19T09:50:38.625Z,134208
2019-03-19T09:51:38.708Z,143648
2019-03-19T09:52:38.626Z,147392
2019-03-19T09:53:38.627Z,150912
2019-03-19T09:54:38.700Z,151584
2019-03-19T09:55:38.659Z,151232
2019-03-19T09:56:38.650Z,146656
2019-03-19T09:57:38.632Z,112768
2019-03-19T09:58:38.702Z,57920
2019-03-19T09:59:38.637Z,55904
2019-03-19T10:00:38.715Z,55456
2019-03-19T10:01:38.709Z,46080
2019-03-19T10:02:38.644Z,42560
2019-03-19T10:03:38.698Z,40800
2019-03-19T10:04:38.634Z,43488
2019-03-19T10:05:38.707Z,50112
2019-03-19T10:06:38.704Z,35232
2019-03-19T10:07:38.599Z,30528
2019-03-19T10:08:38.671Z,30912
2019-03-19T10:09:38.642Z,30752
2019-03-19T10:10:38.731Z,29824
2019-03-19T10:11:38.782Z,28896
2019-03-19T10:12:38.714Z,28768
2019-03-19T10:13:38.604Z,43008
2019-03-19T10:14:38.773Z,32128
2019-03-19T10:15:38.722Z,102336
2019-03-19T10:16:38.639Z,112992
2019-03-19T10:17:38.711Z,119936
2019-03-19T10:18:38.658Z,126624
2019-03-19T10:19:38.715Z,127776
2019-03-19T10:20:38.654Z,134336
2019-03-19T10:21:38.725Z,133216
2019-03-19T10:22:38.723Z,131360
2019-03-19T10:23:38.661Z,132288
2019-03-19T10:24:38.709Z,133984
2019-03-19T10:25:38.658Z,122976
2019-03-19T10:26:38.600Z,143808
2019-03-19T10:27:38.647Z,147424
2019-03-19T10:28:38.625Z,61568
2019-03-19T10:29:38.875Z,54848
2019-03-19T10:30:38.719Z,77504
2019-03-19T10:31:38.666Z,137376
2019-03-19T10:32:38.687Z,141696
2019-03-19T10:33:38.728Z,144256
2019-03-19T10:34:38.740Z,146400
2019-03-19T10:35:38.741Z,149856
2019-03-19T10:36:38.658Z,149120
2019-03-19T10:37:38.666Z,143104
2019-03-19T10:38:38.731Z,147712
2019-03-19T10:39:38.663Z,146432
2019-03-19T10:40:38.739Z,144160
2019-03-19T10:41:38.661Z,143936
2019-03-19T10:42:38.667Z,139328
2019-03-19T10:43:38.662Z,137184
2019-03-19T10:44:38.737Z,136032
2019-03-19T10:45:38.686Z,136704
2019-03-19T10:46:38.668Z,138816
2019-03-19T10:47:38.669Z,143296
2019-03-19T10:48:38.738Z,145152
2019-03-19T10:49:38.697Z,145920
2019-03-19T10:50:38.737Z,148640
2019-03-19T10:51:38.678Z,150912
2019-03-19T10:52:38.737Z,149952
2019-03-19T10:53:38.669Z,92608
2019-03-19T10:54:38.649Z,62432
2019-03-19T10:55:38.736Z,75488
2019-03-19T10:56:39.157Z,50784
2019-03-19T10:57:38.657Z,46912
2019-03-19T10:58:38.734Z,150144
2019-03-19T10:59:48.596Z,149696
2019-03-19T11:00:38.735Z,144608
2019-03-19T11:01:38.743Z,139360
2019-03-19T11:02:38.665Z,136416
2019-03-19T11:03:38.693Z,137984
2019-03-19T11:04:38.679Z,142368
2019-03-19T11:05:38.694Z,144992
2019-03-19T11:06:38.759Z,144704
2019-03-19T11:07:38.695Z,140416
2019-03-19T11:08:38.686Z,133760
2019-03-19T11:09:38.681Z,128640
2019-03-19T11:10:38.751Z,126720
2019-03-19T11:11:38.752Z,128128
2019-03-19T11:12:38.698Z,131552
2019-03-19T11:13:38.752Z,134496
2019-03-19T11:14:38.671Z,135584
2019-03-19T11:15:38.749Z,135712
2019-03-19T11:16:38.751Z,132576
2019-03-19T11:17:38.641Z,128160
2019-03-19T11:18:38.636Z,126816
2019-03-19T11:19:38.673Z,130496
2019-03-19T11:20:38.746Z,136704
2019-03-19T11:21:38.667Z,132192
2019-03-19T11:22:38.681Z,147008
2019-03-19T11:23:38.684Z,145888
2019-03-19T11:24:38.696Z,125728
2019-03-19T11:25:38.768Z,59872
2019-03-19T11:26:38.761Z,62176
2019-03-19T11:27:38.779Z,126368
2019-03-19T11:28:38.810Z,55936
2019-03-19T11:29:38.744Z,53216
2019-03-19T11:30:38.765Z,54016
2019-03-19T11:31:38.765Z,145696
2019-03-19T11:32:38.768Z,53760
2019-03-19T11:33:38.707Z,52928
2019-03-19T11:34:38.649Z,54368
2019-03-19T11:35:38.701Z,63520
2019-03-19T11:36:38.705Z,174944
2019-03-19T11:37:38.665Z,56512
2019-03-19T11:38:38.727Z,49376
2019-03-19T11:39:38.716Z,46528
2019-03-19T11:40:38.758Z,46144
2019-03-19T11:41:38.698Z,45024
2019-03-19T11:42:38.644Z,42240
2019-03-19T11:43:38.752Z,36576
2019-03-19T11:44:38.777Z,33216
2019-03-19T11:45:38.783Z,30272
2019-03-19T11:46:38.709Z,27552
2019-03-19T11:47:38.777Z,25440
2019-03-19T11:48:38.721Z,24160
2019-03-19T11:49:38.778Z,23712
2019-03-19T11:50:38.788Z,23840
2019-03-19T11:51:38.786Z,24704
2019-03-19T11:52:40.203Z,131424
2019-03-19T11:53:38.708Z,54112
2019-03-19T11:54:38.717Z,31008
2019-03-19T11:55:38.731Z,127424
2019-03-19T11:56:38.719Z,130400
2019-03-19T11:57:38.789Z,133216
2019-03-19T11:58:38.718Z,131936
2019-03-19T11:59:38.723Z,133408
2019-03-19T12:00:38.728Z,128256
2019-03-19T12:01:38.811Z,28896
2019-03-19T12:02:38.676Z,47680
2019-03-19T12:03:38.791Z,135456
2019-03-19T12:04:38.789Z,132992
2019-03-19T12:05:38.788Z,134848
2019-03-19T12:06:38.733Z,133216
2019-03-19T12:07:38.796Z,129792
2019-03-19T12:08:38.794Z,128896
2019-03-19T12:09:40.123Z,36160
2019-03-19T12:10:38.801Z,32736
2019-03-19T12:11:38.797Z,32192
2019-03-19T12:12:38.737Z,31968
2019-03-19T12:13:38.794Z,32224
2019-03-19T12:14:38.800Z,32288
2019-03-19T12:15:38.728Z,32480
2019-03-19T12:16:38.796Z,129344
2019-03-19T12:17:38.806Z,133696
2019-03-19T12:18:38.802Z,135392
2019-03-19T12:19:38.732Z,132608
2019-03-19T12:20:38.730Z,118784
2019-03-19T12:21:38.802Z,123840
2019-03-19T12:22:38.733Z,123040
2019-03-19T12:23:38.809Z,122784
2019-03-19T12:24:38.698Z,126688
2019-03-19T12:25:38.672Z,128896
2019-03-19T12:26:38.785Z,127392
2019-03-19T12:27:38.746Z,124192
2019-03-19T12:28:39.795Z,123424
2019-03-19T12:29:38.750Z,123200
2019-03-19T12:30:38.786Z,124320
2019-03-19T12:31:38.787Z,127712
2019-03-19T12:32:38.700Z,38464
2019-03-19T12:33:41.271Z,31168
2019-03-19T12:34:38.818Z,32000
2019-03-19T12:35:38.810Z,33760
2019-03-19T12:36:38.847Z,131392
2019-03-19T12:37:38.809Z,132896
2019-03-19T12:39:38.742Z,95936
2019-03-19T12:40:38.815Z,113952
2019-03-19T12:41:38.810Z,144896
2019-03-19T12:42:38.806Z,143264
2019-03-19T12:43:38.726Z,136800
2019-03-19T12:44:38.826Z,98784
2019-03-19T12:45:38.757Z,67488
2019-03-19T12:46:38.820Z,54912
2019-03-19T12:47:38.751Z,137536
2019-03-19T12:48:38.759Z,82656
2019-03-19T12:49:38.822Z,60096
2019-03-19T12:50:38.761Z,34464
2019-03-19T12:51:38.824Z,128288
2019-03-19T12:52:38.759Z,107040
2019-03-19T12:53:38.755Z,94208
2019-03-19T12:54:38.775Z,35936
2019-03-19T12:55:38.831Z,33696
2019-03-19T12:56:38.875Z,30464
2019-03-19T12:57:38.761Z,29920
2019-03-19T12:58:38.826Z,29920
2019-03-19T12:59:38.767Z,30944
2019-03-19T13:00:38.831Z,34016
2019-03-19T13:01:38.870Z,36768
2019-03-19T13:02:38.761Z,38912
2019-03-19T13:03:38.765Z,110080
2019-03-19T13:04:38.765Z,106272
2019-03-19T13:05:38.818Z,105696
2019-03-19T13:06:38.762Z,107872
2019-03-19T13:07:38.802Z,110944
2019-03-19T13:08:38.780Z,109824
2019-03-19T13:09:38.755Z,108864
2019-03-19T13:10:38.762Z,104768
2019-03-19T13:11:38.762Z,81856
2019-03-19T13:12:38.739Z,32800
2019-03-19T13:13:40.906Z,31488
2019-03-19T13:14:38.841Z,34144
2019-03-19T13:15:38.845Z,38592
2019-03-19T13:16:38.845Z,93184
2019-03-19T13:17:38.865Z,105920
2019-03-19T13:18:38.831Z,57248
2019-03-19T13:19:38.776Z,47168
2019-03-19T13:20:38.774Z,64832
2019-03-19T13:21:38.843Z,78208
2019-03-19T13:22:38.847Z,103072
2019-03-19T13:23:38.850Z,116672
2019-03-19T13:24:38.770Z,113216
2019-03-19T13:25:38.786Z,112064
2019-03-19T13:26:38.843Z,108960
2019-03-19T13:27:38.840Z,111776
2019-03-19T13:28:38.856Z,114624
2019-03-19T13:29:38.839Z,74976
2019-03-19T13:30:45.005Z,50848
2019-03-19T13:31:38.843Z,57952
2019-03-19T13:32:38.761Z,49632
2019-03-19T13:33:38.849Z,48992